sensor_id;sensor_type;location;lat;lon;timestamp;P1;durP1;ratioP1;P2;durP2;ratioP2
22768;SDS011;13001;51.968;5.918;2023-05-07T00:01:59;569.10;;;529.48;;
22768;SDS011;13001;51.968;5.918;2023-05-07T00:04:27;577.08;;;536.70;;
22768;SDS011;13001;51.968;5.918;2023-05-07T00:06:54;568.55;;;529.48;;
22768;SDS011;13001;51.968;5.918;2023-05-07T00:09:21;559.77;;;521.73;;
22768;SDS011;13001;51.968;5.918;2023-05-07T00:11:49;567.67;;;529.05;;
22768;SDS011;13001;51.968;5.918;2023-05-07T00:14:16;549.85;;;513.05;;
22768;SDS011;13001;51.968;5.918;2023-05-07T00:16:43;551.52;;;513.85;;
22768;SDS011;13001;51.968;5.918;2023-05-07T00:19:10;563.83;;;524.52;;
22768;SDS011;13001;51.968;5.918;2023-05-07T00:21:38;584.17;;;542.12;;
22768;SDS011;13001;51.968;5.918;2023-05-07T00:24:05;586.90;;;544.73;;
22768;SDS011;13001;51.968;5.918;2023-05-07T00:26:32;606.47;;;562.07;;
22768;SDS011;13001;51.968;5.918;2023-05-07T00:29:00;619.33;;;572.95;;
22768;SDS011;13001;51.968;5.918;2023-05-07T00:31:27;646.37;;;597.20;;
22768;SDS011;13001;51.968;5.918;2023-05-07T00:33:54;677.70;;;625.30;;
22768;SDS011;13001;51.968;5.918;2023-05-07T00:36:21;671.98;;;619.42;;
22768;SDS011;13001;51.968;5.918;2023-05-07T00:38:49;669.85;;;617.77;;
22768;SDS011;13001;51.968;5.918;2023-05-07T00:41:16;692.55;;;638.72;;
22768;SDS011;13001;51.968;5.918;2023-05-07T00:43:43;683.60;;;630.53;;
22768;SDS011;13001;51.968;5.918;2023-05-07T00:46:11;681.78;;;628.42;;
22768;SDS011;13001;51.968;5.918;2023-05-07T00:48:38;674.35;;;622.48;;
22768;SDS011;13001;51.968;5.918;2023-05-07T00:51:06;665.73;;;614.17;;
22768;SDS011;13001;51.968;5.918;2023-05-07T00:53:33;675.22;;;622.42;;
22768;SDS011;13001;51.968;5.918;2023-05-07T00:56:01;682.23;;;629.07;;
22768;SDS011;13001;51.968;5.918;2023-05-07T00:58:28;661.67;;;610.60;;
22768;SDS011;13001;51.968;5.918;2023-05-07T01:00:57;659.52;;;608.27;;
22768;SDS011;13001;51.968;5.918;2023-05-07T01:03:24;634.20;;;586.08;;
22768;SDS011;13001;51.968;5.918;2023-05-07T01:05:52;625.97;;;578.10;;
22768;SDS011;13001;51.968;5.918;2023-05-07T01:08:19;616.23;;;569.75;;
22768;SDS011;13001;51.968;5.918;2023-05-07T01:10:47;595.62;;;551.40;;
22768;SDS011;13001;51.968;5.918;2023-05-07T01:13:15;571.53;;;529.70;;
22768;SDS011;13001;51.968;5.918;2023-05-07T01:15:43;553.90;;;514.42;;
22768;SDS011;13001;51.968;5.918;2023-05-07T01:18:10;559.75;;;520.02;;
22768;SDS011;13001;51.968;5.918;2023-05-07T01:20:37;544.33;;;505.93;;
22768;SDS011;13001;51.968;5.918;2023-05-07T01:23:05;537.48;;;500.38;;
22768;SDS011;13001;51.968;5.918;2023-05-07T01:25:33;527.70;;;490.62;;
22768;SDS011;13001;51.968;5.918;2023-05-07T01:28:00;533.23;;;496.00;;
22768;SDS011;13001;51.968;5.918;2023-05-07T01:30:28;533.45;;;496.83;;
22768;SDS011;13001;51.968;5.918;2023-05-07T01:33:01;539.65;;;502.10;;
22768;SDS011;13001;51.968;5.918;2023-05-07T01:35:32;525.20;;;488.95;;
22768;SDS011;13001;51.968;5.918;2023-05-07T01:37:57;528.42;;;491.25;;
22768;SDS011;13001;51.968;5.918;2023-05-07T01:40:25;537.62;;;500.40;;
22768;SDS011;13001;51.968;5.918;2023-05-07T01:42:53;526.80;;;489.93;;
22768;SDS011;13001;51.968;5.918;2023-05-07T01:45:21;518.77;;;482.17;;
22768;SDS011;13001;51.968;5.918;2023-05-07T01:47:49;529.58;;;492.35;;
22768;SDS011;13001;51.968;5.918;2023-05-07T01:50:17;532.83;;;494.93;;
22768;SDS011;13001;51.968;5.918;2023-05-07T01:52:45;525.15;;;487.77;;
22768;SDS011;13001;51.968;5.918;2023-05-07T01:55:13;520.60;;;483.95;;
22768;SDS011;13001;51.968;5.918;2023-05-07T01:57:40;525.13;;;487.53;;
22768;SDS011;13001;51.968;5.918;2023-05-07T02:00:07;518.55;;;481.55;;
22768;SDS011;13001;51.968;5.918;2023-05-07T02:02:35;527.83;;;490.43;;
22768;SDS011;13001;51.968;5.918;2023-05-07T02:05:02;520.35;;;483.40;;
22768;SDS011;13001;51.968;5.918;2023-05-07T02:07:29;524.53;;;486.67;;
22768;SDS011;13001;51.968;5.918;2023-05-07T02:09:57;531.63;;;493.10;;
22768;SDS011;13001;51.968;5.918;2023-05-07T02:12:24;535.40;;;496.15;;
22768;SDS011;13001;51.968;5.918;2023-05-07T02:14:51;539.30;;;499.02;;
22768;SDS011;13001;51.968;5.918;2023-05-07T02:17:18;527.20;;;487.40;;
22768;SDS011;13001;51.968;5.918;2023-05-07T02:19:46;520.95;;;481.78;;
22768;SDS011;13001;51.968;5.918;2023-05-07T02:22:13;509.37;;;471.30;;
22768;SDS011;13001;51.968;5.918;2023-05-07T02:24:40;509.75;;;471.87;;
22768;SDS011;13001;51.968;5.918;2023-05-07T02:27:08;500.83;;;464.17;;
22768;SDS011;13001;51.968;5.918;2023-05-07T02:29:35;501.40;;;465.43;;
22768;SDS011;13001;51.968;5.918;2023-05-07T02:32:02;492.53;;;457.55;;
22768;SDS011;13001;51.968;5.918;2023-05-07T02:34:29;493.75;;;458.40;;
22768;SDS011;13001;51.968;5.918;2023-05-07T02:36:57;493.02;;;457.52;;
22768;SDS011;13001;51.968;5.918;2023-05-07T02:39:24;489.33;;;453.63;;
22768;SDS011;13001;51.968;5.918;2023-05-07T02:41:51;495.12;;;459.98;;
22768;SDS011;13001;51.968;5.918;2023-05-07T02:44:18;479.80;;;445.12;;
22768;SDS011;13001;51.968;5.918;2023-05-07T02:46:46;475.15;;;441.42;;
22768;SDS011;13001;51.968;5.918;2023-05-07T02:49:13;472.52;;;439.07;;
22768;SDS011;13001;51.968;5.918;2023-05-07T02:51:40;466.30;;;433.50;;
22768;SDS011;13001;51.968;5.918;2023-05-07T02:54:08;471.60;;;438.35;;
22768;SDS011;13001;51.968;5.918;2023-05-07T02:56:35;455.30;;;423.13;;
22768;SDS011;13001;51.968;5.918;2023-05-07T02:59:02;453.65;;;422.35;;
22768;SDS011;13001;51.968;5.918;2023-05-07T03:01:29;450.68;;;419.40;;
22768;SDS011;13001;51.968;5.918;2023-05-07T03:03:57;453.30;;;421.90;;
22768;SDS011;13001;51.968;5.918;2023-05-07T03:06:24;420.10;;;392.13;;
22768;SDS011;13001;51.968;5.918;2023-05-07T03:08:52;450.63;;;419.67;;
22768;SDS011;13001;51.968;5.918;2023-05-07T03:11:19;444.65;;;414.57;;
22768;SDS011;13001;51.968;5.918;2023-05-07T03:13:47;442.12;;;412.02;;
22768;SDS011;13001;51.968;5.918;2023-05-07T03:16:15;449.07;;;418.13;;
22768;SDS011;13001;51.968;5.918;2023-05-07T03:18:43;448.20;;;417.40;;
22768;SDS011;13001;51.968;5.918;2023-05-07T03:21:10;443.55;;;413.00;;
22768;SDS011;13001;51.968;5.918;2023-05-07T03:23:37;438.27;;;408.45;;
22768;SDS011;13001;51.968;5.918;2023-05-07T03:26:05;432.98;;;403.65;;
22768;SDS011;13001;51.968;5.918;2023-05-07T03:28:32;431.13;;;402.25;;
22768;SDS011;13001;51.968;5.918;2023-05-07T03:30:59;433.98;;;404.55;;
22768;SDS011;13001;51.968;5.918;2023-05-07T03:33:27;436.80;;;407.47;;
22768;SDS011;13001;51.968;5.918;2023-05-07T03:35:54;438.98;;;409.95;;
22768;SDS011;13001;51.968;5.918;2023-05-07T03:38:21;426.43;;;397.95;;
22768;SDS011;13001;51.968;5.918;2023-05-07T03:40:48;433.85;;;404.70;;
22768;SDS011;13001;51.968;5.918;2023-05-07T03:43:16;434.85;;;405.85;;
22768;SDS011;13001;51.968;5.918;2023-05-07T03:45:43;432.15;;;403.15;;
22768;SDS011;13001;51.968;5.918;2023-05-07T03:48:10;429.38;;;400.72;;
22768;SDS011;13001;51.968;5.918;2023-05-07T03:50:37;434.03;;;405.22;;
22768;SDS011;13001;51.968;5.918;2023-05-07T03:53:05;425.27;;;396.93;;
22768;SDS011;13001;51.968;5.918;2023-05-07T03:55:32;420.92;;;392.43;;
22768;SDS011;13001;51.968;5.918;2023-05-07T03:57:59;439.90;;;410.75;;
22768;SDS011;13001;51.968;5.918;2023-05-07T04:00:27;423.05;;;395.25;;
22768;SDS011;13001;51.968;5.918;2023-05-07T04:02:54;424.60;;;396.53;;
22768;SDS011;13001;51.968;5.918;2023-05-07T04:05:21;417.53;;;391.00;;
22768;SDS011;13001;51.968;5.918;2023-05-07T04:07:48;414.57;;;387.88;;
22768;SDS011;13001;51.968;5.918;2023-05-07T04:10:16;395.18;;;370.33;;
22768;SDS011;13001;51.968;5.918;2023-05-07T04:12:43;423.95;;;396.77;;
22768;SDS011;13001;51.968;5.918;2023-05-07T04:15:10;397.90;;;372.80;;
22768;SDS011;13001;51.968;5.918;2023-05-07T04:17:38;408.23;;;382.25;;
22768;SDS011;13001;51.968;5.918;2023-05-07T04:20:06;406.02;;;380.42;;
22768;SDS011;13001;51.968;5.918;2023-05-07T04:22:33;415.52;;;389.12;;
22768;SDS011;13001;51.968;5.918;2023-05-07T04:25:00;412.20;;;386.23;;
22768;SDS011;13001;51.968;5.918;2023-05-07T04:27:28;392.62;;;368.23;;
22768;SDS011;13001;51.968;5.918;2023-05-07T04:29:55;404.32;;;379.48;;
22768;SDS011;13001;51.968;5.918;2023-05-07T04:32:23;396.43;;;372.17;;
22768;SDS011;13001;51.968;5.918;2023-05-07T04:34:51;400.18;;;375.40;;
22768;SDS011;13001;51.968;5.918;2023-05-07T04:37:18;404.35;;;379.75;;
22768;SDS011;13001;51.968;5.918;2023-05-07T04:39:45;399.52;;;374.95;;
22768;SDS011;13001;51.968;5.918;2023-05-07T04:42:16;394.73;;;370.42;;
22768;SDS011;13001;51.968;5.918;2023-05-07T04:44:44;404.25;;;379.48;;
22768;SDS011;13001;51.968;5.918;2023-05-07T04:47:12;405.67;;;381.17;;
22768;SDS011;13001;51.968;5.918;2023-05-07T04:49:39;392.60;;;368.80;;
22768;SDS011;13001;51.968;5.918;2023-05-07T04:52:06;392.07;;;368.07;;
22768;SDS011;13001;51.968;5.918;2023-05-07T04:54:34;386.20;;;362.90;;
22768;SDS011;13001;51.968;5.918;2023-05-07T04:57:03;397.30;;;373.18;;
22768;SDS011;13001;51.968;5.918;2023-05-07T04:59:31;392.90;;;368.93;;
22768;SDS011;13001;51.968;5.918;2023-05-07T05:01:59;417.15;;;391.70;;
22768;SDS011;13001;51.968;5.918;2023-05-07T05:04:26;419.60;;;393.67;;
22768;SDS011;13001;51.968;5.918;2023-05-07T05:06:53;393.02;;;369.15;;
22768;SDS011;13001;51.968;5.918;2023-05-07T05:09:21;384.93;;;361.80;;
22768;SDS011;13001;51.968;5.918;2023-05-07T05:11:48;399.23;;;375.05;;
22768;SDS011;13001;51.968;5.918;2023-05-07T05:14:15;394.85;;;371.10;;
22768;SDS011;13001;51.968;5.918;2023-05-07T05:16:42;398.40;;;373.95;;
22768;SDS011;13001;51.968;5.918;2023-05-07T05:19:10;386.02;;;362.68;;
22768;SDS011;13001;51.968;5.918;2023-05-07T05:21:37;382.02;;;359.02;;
22768;SDS011;13001;51.968;5.918;2023-05-07T05:24:04;393.23;;;369.30;;
22768;SDS011;13001;51.968;5.918;2023-05-07T05:26:31;402.88;;;378.18;;
22768;SDS011;13001;51.968;5.918;2023-05-07T05:28:59;380.10;;;357.43;;
22768;SDS011;13001;51.968;5.918;2023-05-07T05:31:26;387.25;;;363.85;;
22768;SDS011;13001;51.968;5.918;2023-05-07T05:33:53;397.05;;;372.82;;
22768;SDS011;13001;51.968;5.918;2023-05-07T05:36:20;381.93;;;358.73;;
22768;SDS011;13001;51.968;5.918;2023-05-07T05:38:48;388.90;;;365.15;;
22768;SDS011;13001;51.968;5.918;2023-05-07T05:41:15;377.45;;;354.77;;
22768;SDS011;13001;51.968;5.918;2023-05-07T05:43:42;370.15;;;347.93;;
22768;SDS011;13001;51.968;5.918;2023-05-07T05:46:09;371.68;;;349.25;;
22768;SDS011;13001;51.968;5.918;2023-05-07T05:48:38;366.38;;;344.40;;
22768;SDS011;13001;51.968;5.918;2023-05-07T05:51:05;364.20;;;342.17;;
22768;SDS011;13001;51.968;5.918;2023-05-07T05:53:33;358.17;;;336.73;;
22768;SDS011;13001;51.968;5.918;2023-05-07T05:56:00;400.30;;;375.70;;
22768;SDS011;13001;51.968;5.918;2023-05-07T05:58:27;386.27;;;362.03;;
22768;SDS011;13001;51.968;5.918;2023-05-07T06:00:54;371.68;;;348.80;;
22768;SDS011;13001;51.968;5.918;2023-05-07T06:03:22;388.97;;;364.57;;
22768;SDS011;13001;51.968;5.918;2023-05-07T06:05:50;381.63;;;357.83;;
22768;SDS011;13001;51.968;5.918;2023-05-07T06:08:17;378.27;;;355.27;;
22768;SDS011;13001;51.968;5.918;2023-05-07T06:10:44;371.85;;;348.70;;
22768;SDS011;13001;51.968;5.918;2023-05-07T06:13:12;361.33;;;338.73;;
22768;SDS011;13001;51.968;5.918;2023-05-07T06:15:39;361.77;;;339.20;;
22768;SDS011;13001;51.968;5.918;2023-05-07T06:18:06;364.40;;;342.02;;
22768;SDS011;13001;51.968;5.918;2023-05-07T06:20:33;369.48;;;346.05;;
22768;SDS011;13001;51.968;5.918;2023-05-07T06:23:01;371.93;;;348.30;;
22768;SDS011;13001;51.968;5.918;2023-05-07T06:25:28;351.70;;;329.70;;
22768;SDS011;13001;51.968;5.918;2023-05-07T06:27:55;357.73;;;335.35;;
22768;SDS011;13001;51.968;5.918;2023-05-07T06:30:22;354.77;;;332.87;;
22768;SDS011;13001;51.968;5.918;2023-05-07T06:32:50;368.80;;;345.45;;
22768;SDS011;13001;51.968;5.918;2023-05-07T06:35:17;355.70;;;333.27;;
22768;SDS011;13001;51.968;5.918;2023-05-07T06:37:44;361.30;;;338.57;;
22768;SDS011;13001;51.968;5.918;2023-05-07T06:40:12;386.03;;;360.97;;
22768;SDS011;13001;51.968;5.918;2023-05-07T06:42:39;361.52;;;338.40;;
22768;SDS011;13001;51.968;5.918;2023-05-07T06:45:07;349.12;;;326.85;;
22768;SDS011;13001;51.968;5.918;2023-05-07T06:47:35;354.90;;;332.73;;
22768;SDS011;13001;51.968;5.918;2023-05-07T06:50:02;347.20;;;325.52;;
22768;SDS011;13001;51.968;5.918;2023-05-07T06:52:30;322.63;;;301.35;;
22768;SDS011;13001;51.968;5.918;2023-05-07T06:54:57;324.05;;;302.15;;
22768;SDS011;13001;51.968;5.918;2023-05-07T06:57:24;306.85;;;285.95;;
22768;SDS011;13001;51.968;5.918;2023-05-07T06:59:51;315.73;;;294.27;;
22768;SDS011;13001;51.968;5.918;2023-05-07T07:02:19;314.68;;;292.90;;
22768;SDS011;13001;51.968;5.918;2023-05-07T07:04:46;306.07;;;285.63;;
22768;SDS011;13001;51.968;5.918;2023-05-07T07:07:13;330.67;;;308.77;;
22768;SDS011;13001;51.968;5.918;2023-05-07T07:09:40;387.40;;;360.88;;
22768;SDS011;13001;51.968;5.918;2023-05-07T07:12:08;322.88;;;302.13;;
22768;SDS011;13001;51.968;5.918;2023-05-07T07:14:35;311.90;;;290.98;;
22768;SDS011;13001;51.968;5.918;2023-05-07T07:17:02;372.73;;;346.20;;
22768;SDS011;13001;51.968;5.918;2023-05-07T07:19:31;326.20;;;304.05;;
22768;SDS011;13001;51.968;5.918;2023-05-07T07:21:58;297.70;;;276.67;;
22768;SDS011;13001;51.968;5.918;2023-05-07T07:24:25;272.90;;;254.68;;
22768;SDS011;13001;51.968;5.918;2023-05-07T07:26:53;265.80;;;248.05;;
22768;SDS011;13001;51.968;5.918;2023-05-07T07:29:21;255.65;;;239.08;;
22768;SDS011;13001;51.968;5.918;2023-05-07T07:31:48;310.50;;;289.57;;
22768;SDS011;13001;51.968;5.918;2023-05-07T07:34:16;312.85;;;291.70;;
22768;SDS011;13001;51.968;5.918;2023-05-07T07:36:45;273.55;;;256.13;;
22768;SDS011;13001;51.968;5.918;2023-05-07T07:39:12;282.05;;;263.80;;
22768;SDS011;13001;51.968;5.918;2023-05-07T07:41:39;325.32;;;302.75;;
22768;SDS011;13001;51.968;5.918;2023-05-07T07:44:07;239.00;;;222.67;;
22768;SDS011;13001;51.968;5.918;2023-05-07T07:46:34;251.42;;;234.67;;
22768;SDS011;13001;51.968;5.918;2023-05-07T07:49:02;260.10;;;241.90;;
22768;SDS011;13001;51.968;5.918;2023-05-07T07:51:29;275.40;;;256.15;;
22768;SDS011;13001;51.968;5.918;2023-05-07T07:53:56;224.62;;;208.68;;
22768;SDS011;13001;51.968;5.918;2023-05-07T07:56:24;245.35;;;228.20;;
22768;SDS011;13001;51.968;5.918;2023-05-07T07:58:51;223.60;;;208.38;;
22768;SDS011;13001;51.968;5.918;2023-05-07T08:01:19;254.67;;;238.13;;
22768;SDS011;13001;51.968;5.918;2023-05-07T08:03:46;238.55;;;223.00;;
22768;SDS011;13001;51.968;5.918;2023-05-07T08:06:13;250.70;;;234.43;;
22768;SDS011;13001;51.968;5.918;2023-05-07T08:08:41;215.60;;;201.27;;
22768;SDS011;13001;51.968;5.918;2023-05-07T08:11:09;234.55;;;218.95;;
22768;SDS011;13001;51.968;5.918;2023-05-07T08:13:36;235.93;;;218.78;;
22768;SDS011;13001;51.968;5.918;2023-05-07T08:16:05;204.27;;;188.33;;
22768;SDS011;13001;51.968;5.918;2023-05-07T08:18:32;176.63;;;164.05;;
22768;SDS011;13001;51.968;5.918;2023-05-07T08:21:00;195.00;;;180.22;;
22768;SDS011;13001;51.968;5.918;2023-05-07T08:23:27;203.50;;;188.42;;
22768;SDS011;13001;51.968;5.918;2023-05-07T08:25:55;193.30;;;178.57;;
22768;SDS011;13001;51.968;5.918;2023-05-07T08:28:22;206.57;;;190.88;;
22768;SDS011;13001;51.968;5.918;2023-05-07T08:30:51;192.00;;;178.02;;
22768;SDS011;13001;51.968;5.918;2023-05-07T08:33:18;179.68;;;166.97;;
22768;SDS011;13001;51.968;5.918;2023-05-07T08:35:46;168.70;;;156.80;;
22768;SDS011;13001;51.968;5.918;2023-05-07T08:38:13;173.30;;;161.03;;
22768;SDS011;13001;51.968;5.918;2023-05-07T08:40:40;173.10;;;160.65;;
22768;SDS011;13001;51.968;5.918;2023-05-07T08:43:07;347.30;;;321.90;;
22768;SDS011;13001;51.968;5.918;2023-05-07T08:45:35;407.30;;;378.58;;
22768;SDS011;13001;51.968;5.918;2023-05-07T08:48:02;453.30;;;421.40;;
22768;SDS011;13001;51.968;5.918;2023-05-07T08:50:30;585.80;;;541.40;;
22768;SDS011;13001;51.968;5.918;2023-05-07T08:52:57;515.50;;;477.13;;
22768;SDS011;13001;51.968;5.918;2023-05-07T08:55:26;557.38;;;515.20;;
22768;SDS011;13001;51.968;5.918;2023-05-07T08:57:55;588.63;;;543.87;;
22768;SDS011;13001;51.968;5.918;2023-05-07T09:00:22;595.25;;;548.85;;
22768;SDS011;13001;51.968;5.918;2023-05-07T09:02:52;609.58;;;561.95;;
22768;SDS011;13001;51.968;5.918;2023-05-07T09:05:19;566.60;;;522.93;;
22768;SDS011;13001;51.968;5.918;2023-05-07T09:07:47;613.45;;;565.23;;
22768;SDS011;13001;51.968;5.918;2023-05-07T09:10:14;629.62;;;579.38;;
22768;SDS011;13001;51.968;5.918;2023-05-07T09:12:41;670.77;;;616.75;;
22768;SDS011;13001;51.968;5.918;2023-05-07T09:15:09;741.15;;;681.97;;
22768;SDS011;13001;51.968;5.918;2023-05-07T09:17:38;781.17;;;719.40;;
22768;SDS011;13001;51.968;5.918;2023-05-07T09:20:05;800.73;;;737.72;;
22768;SDS011;13001;51.968;5.918;2023-05-07T09:22:33;768.60;;;708.40;;
22768;SDS011;13001;51.968;5.918;2023-05-07T09:25:00;820.10;;;754.55;;
22768;SDS011;13001;51.968;5.918;2023-05-07T09:27:27;819.03;;;752.62;;
22768;SDS011;13001;51.968;5.918;2023-05-07T09:29:55;824.77;;;758.15;;
22768;SDS011;13001;51.968;5.918;2023-05-07T09:32:22;836.30;;;769.45;;
22768;SDS011;13001;51.968;5.918;2023-05-07T09:34:49;825.15;;;758.98;;
22768;SDS011;13001;51.968;5.918;2023-05-07T09:37:16;840.00;;;772.15;;
22768;SDS011;13001;51.968;5.918;2023-05-07T09:39:49;874.92;;;802.33;;
22768;SDS011;13001;51.968;5.918;2023-05-07T09:42:15;864.45;;;793.50;;
22768;SDS011;13001;51.968;5.918;2023-05-07T09:44:44;874.58;;;801.75;;
22768;SDS011;13001;51.968;5.918;2023-05-07T09:47:11;855.98;;;785.60;;
22768;SDS011;13001;51.968;5.918;2023-05-07T09:49:40;861.65;;;790.65;;
22768;SDS011;13001;51.968;5.918;2023-05-07T09:52:10;877.88;;;804.95;;
22768;SDS011;13001;51.968;5.918;2023-05-07T09:54:39;860.02;;;789.10;;
22768;SDS011;13001;51.968;5.918;2023-05-07T09:57:09;876.15;;;803.80;;
22768;SDS011;13001;51.968;5.918;2023-05-07T09:59:38;883.75;;;809.30;;
22768;SDS011;13001;51.968;5.918;2023-05-07T10:02:05;894.10;;;820.85;;
22768;SDS011;13001;51.968;5.918;2023-05-07T10:04:32;888.57;;;814.27;;
22768;SDS011;13001;51.968;5.918;2023-05-07T10:07:00;888.95;;;814.38;;
22768;SDS011;13001;51.968;5.918;2023-05-07T10:09:28;877.50;;;805.38;;
22768;SDS011;13001;51.968;5.918;2023-05-07T10:11:56;851.58;;;781.90;;
22768;SDS011;13001;51.968;5.918;2023-05-07T10:14:24;879.78;;;807.05;;
22768;SDS011;13001;51.968;5.918;2023-05-07T10:16:52;836.03;;;769.92;;
22768;SDS011;13001;51.968;5.918;2023-05-07T10:19:20;848.45;;;778.08;;
22768;SDS011;13001;51.968;5.918;2023-05-07T10:21:55;863.72;;;793.95;;
22768;SDS011;13001;51.968;5.918;2023-05-07T10:24:27;806.53;;;743.33;;
22768;SDS011;13001;51.968;5.918;2023-05-07T10:26:55;764.17;;;705.60;;
22768;SDS011;13001;51.968;5.918;2023-05-07T10:29:37;701.37;;;647.27;;
22768;SDS011;13001;51.968;5.918;2023-05-07T10:32:09;749.62;;;690.15;;
22768;SDS011;13001;51.968;5.918;2023-05-07T10:34:34;727.90;;;670.95;;
22768;SDS011;13001;51.968;5.918;2023-05-07T10:37:02;724.88;;;666.73;;
22768;SDS011;13001;51.968;5.918;2023-05-07T10:39:29;650.83;;;601.60;;
22768;SDS011;13001;51.968;5.918;2023-05-07T10:42:06;674.58;;;622.55;;
22768;SDS011;13001;51.968;5.918;2023-05-07T10:44:27;692.45;;;639.00;;
22768;SDS011;13001;51.968;5.918;2023-05-07T10:47:07;659.22;;;609.10;;
22768;SDS011;13001;51.968;5.918;2023-05-07T10:50:20;719.23;;;664.30;;
22768;SDS011;13001;51.968;5.918;2023-05-07T10:52:13;701.58;;;647.45;;
22768;SDS011;13001;51.968;5.918;2023-05-07T10:54:42;723.83;;;668.58;;
22768;SDS011;13001;51.968;5.918;2023-05-07T10:59:58;634.13;;;586.85;;
22768;SDS011;13001;51.968;5.918;2023-05-07T11:03:10;629.50;;;582.40;;
22768;SDS011;13001;51.968;5.918;2023-05-07T11:07:39;714.02;;;658.17;;
22768;SDS011;13001;51.968;5.918;2023-05-07T11:10:07;685.23;;;631.80;;
22768;SDS011;13001;51.968;5.918;2023-05-07T11:15:08;709.48;;;654.98;;
22768;SDS011;13001;51.968;5.918;2023-05-07T11:20:36;651.15;;;602.05;;
22768;SDS011;13001;51.968;5.918;2023-05-07T11:22:50;758.00;;;699.65;;
22768;SDS011;13001;51.968;5.918;2023-05-07T11:25:19;739.90;;;681.45;;
22768;SDS011;13001;51.968;5.918;2023-05-07T11:27:46;729.50;;;673.52;;
22768;SDS011;13001;51.968;5.918;2023-05-07T11:30:17;716.60;;;661.90;;
22768;SDS011;13001;51.968;5.918;2023-05-07T11:32:47;749.35;;;690.77;;
22768;SDS011;13001;51.968;5.918;2023-05-07T11:35:15;765.55;;;705.42;;
22768;SDS011;13001;51.968;5.918;2023-05-07T11:37:45;733.75;;;676.17;;
22768;SDS011;13001;51.968;5.918;2023-05-07T11:40:11;778.30;;;718.27;;
22768;SDS011;13001;51.968;5.918;2023-05-07T11:42:40;811.90;;;746.53;;
22768;SDS011;13001;51.968;5.918;2023-05-07T11:45:09;782.60;;;719.70;;
22768;SDS011;13001;51.968;5.918;2023-05-07T11:47:37;790.65;;;728.48;;
22768;SDS011;13001;51.968;5.918;2023-05-07T11:50:05;836.15;;;769.52;;
22768;SDS011;13001;51.968;5.918;2023-05-07T11:52:33;809.55;;;746.85;;
22768;SDS011;13001;51.968;5.918;2023-05-07T11:55:01;827.62;;;761.10;;
22768;SDS011;13001;51.968;5.918;2023-05-07T11:57:30;785.48;;;723.55;;
22768;SDS011;13001;51.968;5.918;2023-05-07T11:59:58;774.77;;;713.70;;
22768;SDS011;13001;51.968;5.918;2023-05-07T12:02:27;795.45;;;732.47;;
22768;SDS011;13001;51.968;5.918;2023-05-07T12:04:55;833.00;;;766.38;;
22768;SDS011;13001;51.968;5.918;2023-05-07T12:07:23;827.65;;;761.50;;
22768;SDS011;13001;51.968;5.918;2023-05-07T12:09:51;799.05;;;737.27;;
22768;SDS011;13001;51.968;5.918;2023-05-07T12:12:19;785.60;;;724.60;;
22768;SDS011;13001;51.968;5.918;2023-05-07T12:14:46;781.83;;;721.58;;
22768;SDS011;13001;51.968;5.918;2023-05-07T12:17:13;803.65;;;739.83;;
22768;SDS011;13001;51.968;5.918;2023-05-07T12:19:41;799.38;;;736.75;;
22768;SDS011;13001;51.968;5.918;2023-05-07T12:22:09;820.48;;;755.10;;
22768;SDS011;13001;51.968;5.918;2023-05-07T12:24:57;844.75;;;776.08;;
22768;SDS011;13001;51.968;5.918;2023-05-07T12:27:15;853.27;;;783.30;;
22768;SDS011;13001;51.968;5.918;2023-05-07T12:29:48;858.98;;;788.10;;
22768;SDS011;13001;51.968;5.918;2023-05-07T12:32:19;878.63;;;805.50;;
22768;SDS011;13001;51.968;5.918;2023-05-07T12:34:49;852.17;;;781.90;;
22768;SDS011;13001;51.968;5.918;2023-05-07T12:37:16;846.63;;;776.95;;
22768;SDS011;13001;51.968;5.918;2023-05-07T12:39:49;876.15;;;803.05;;
22768;SDS011;13001;51.968;5.918;2023-05-07T12:42:19;888.25;;;813.67;;
22768;SDS011;13001;51.968;5.918;2023-05-07T12:44:46;892.95;;;819.28;;
22768;SDS011;13001;51.968;5.918;2023-05-07T12:47:14;892.13;;;817.58;;
22768;SDS011;13001;51.968;5.918;2023-05-07T12:49:41;889.72;;;814.78;;
22768;SDS011;13001;51.968;5.918;2023-05-07T12:52:09;889.48;;;814.90;;
22768;SDS011;13001;51.968;5.918;2023-05-07T12:54:38;909.73;;;834.10;;
22768;SDS011;13001;51.968;5.918;2023-05-07T12:57:10;893.55;;;819.48;;
22768;SDS011;13001;51.968;5.918;2023-05-07T12:59:35;904.37;;;827.52;;
22768;SDS011;13001;51.968;5.918;2023-05-07T13:02:03;901.20;;;826.07;;
22768;SDS011;13001;51.968;5.918;2023-05-07T13:04:31;887.60;;;813.75;;
22768;SDS011;13001;51.968;5.918;2023-05-07T13:06:59;905.35;;;830.80;;
22768;SDS011;13001;51.968;5.918;2023-05-07T13:09:26;875.00;;;802.28;;
22768;SDS011;13001;51.968;5.918;2023-05-07T13:11:55;868.15;;;797.75;;
22768;SDS011;13001;51.968;5.918;2023-05-07T13:14:22;876.60;;;805.15;;
22768;SDS011;13001;51.968;5.918;2023-05-07T13:16:50;892.42;;;818.70;;
22768;SDS011;13001;51.968;5.918;2023-05-07T13:19:17;895.33;;;820.05;;
22768;SDS011;13001;51.968;5.918;2023-05-07T13:21:44;886.50;;;812.45;;
22768;SDS011;13001;51.968;5.918;2023-05-07T13:24:11;884.50;;;811.22;;
22768;SDS011;13001;51.968;5.918;2023-05-07T13:26:39;890.87;;;816.70;;
22768;SDS011;13001;51.968;5.918;2023-05-07T13:29:06;897.30;;;822.98;;
22768;SDS011;13001;51.968;5.918;2023-05-07T13:31:33;887.75;;;814.25;;
22768;SDS011;13001;51.968;5.918;2023-05-07T13:34:01;895.75;;;820.52;;
22768;SDS011;13001;51.968;5.918;2023-05-07T13:36:29;871.48;;;798.35;;
22768;SDS011;13001;51.968;5.918;2023-05-07T13:38:58;883.25;;;809.83;;
22768;SDS011;13001;51.968;5.918;2023-05-07T13:41:26;896.45;;;821.30;;
22768;SDS011;13001;51.968;5.918;2023-05-07T13:43:54;890.15;;;816.95;;
22768;SDS011;13001;51.968;5.918;2023-05-07T13:46:21;900.70;;;824.92;;
22768;SDS011;13001;51.968;5.918;2023-05-07T13:48:48;903.67;;;828.88;;
22768;SDS011;13001;51.968;5.918;2023-05-07T13:51:17;902.52;;;826.95;;
22768;SDS011;13001;51.968;5.918;2023-05-07T13:53:44;877.60;;;803.70;;
22768;SDS011;13001;51.968;5.918;2023-05-07T13:56:13;871.60;;;799.67;;
22768;SDS011;13001;51.968;5.918;2023-05-07T13:58:40;861.73;;;790.52;;
22768;SDS011;13001;51.968;5.918;2023-05-07T14:01:07;875.33;;;802.48;;
22768;SDS011;13001;51.968;5.918;2023-05-07T14:03:35;898.45;;;823.02;;
22768;SDS011;13001;51.968;5.918;2023-05-07T14:06:04;865.75;;;793.85;;
22768;SDS011;13001;51.968;5.918;2023-05-07T14:08:31;865.75;;;794.77;;
22768;SDS011;13001;51.968;5.918;2023-05-07T14:10:58;860.92;;;789.95;;